createdAt,value
2022-08-17T00:00:34.995Z,5.63
2022-08-17T00:03:20.599Z,6.27
2022-08-17T00:05:59.079Z,7.03
2022-08-17T00:08:30.232Z,7.77
2022-08-17T00:10:58.435Z,12.40
2022-08-17T00:13:33.805Z,13.73
2022-08-17T00:16:11.268Z,14.50
2022-08-17T00:19:00.983Z,12.50
2022-08-17T00:21:26.841Z,12.47
2022-08-17T00:24:15.144Z,11.30
2022-08-17T00:26:45.155Z,10.03
2022-08-17T00:29:19.698Z,7.90
2022-08-17T00:31:47.370Z,7.63
2022-08-17T00:34:14.336Z,8.10
2022-08-17T00:36:41.317Z,7.63
2022-08-17T00:39:08.256Z,6.57
2022-08-17T00:41:35.915Z,7.90
2022-08-17T00:44:08.634Z,6.67
2022-08-17T00:46:41.057Z,6.23
2022-08-17T00:49:10.124Z,5.57
2022-08-17T00:52:10.798Z,5.90
2022-08-17T00:54:42.531Z,5.37
2022-08-17T00:57:23.500Z,5.47
2022-08-17T01:00:01.956Z,4.80
2022-08-17T01:02:34.893Z,6.20
2022-08-17T01:05:24.002Z,4.63
2022-08-17T01:07:53.491Z,4.60
2022-08-17T01:10:58.349Z,4.67
2022-08-17T01:13:12.588Z,4.63
2022-08-17T01:15:48.039Z,5.10
2022-08-17T01:18:16.621Z,5.07
2022-08-17T01:20:53.670Z,5.03
2022-08-17T01:23:23.545Z,5.73
2022-08-17T01:25:52.979Z,4.60
2022-08-17T01:28:53.400Z,4.70
2022-08-17T01:31:09.695Z,4.90
2022-08-17T01:33:37.528Z,4.83
2022-08-17T01:36:07.255Z,5.07
2022-08-17T01:38:36.583Z,5.43
2022-08-17T01:41:09.491Z,4.83
2022-08-17T01:43:45.282Z,5.10
2022-08-17T01:46:20.123Z,5.33
2022-08-17T01:48:47.668Z,5.63
2022-08-17T01:51:15.988Z,5.70
2022-08-17T01:53:49.260Z,4.67
2022-08-17T01:56:20.223Z,5.70
2022-08-17T01:58:47.627Z,5.70
2022-08-17T02:01:18.919Z,5.50
2022-08-17T02:03:53.187Z,5.53
2022-08-17T02:06:28.431Z,6.70
2022-08-17T02:09:03.133Z,6.63
2022-08-17T02:11:33.299Z,6.67
2022-08-17T02:14:03.002Z,6.63
2022-08-17T02:16:37.137Z,5.90
2022-08-17T02:19:12.011Z,6.57
2022-08-17T02:21:40.578Z,6.70
2022-08-17T02:24:10.951Z,6.67
2022-08-17T02:26:37.996Z,7.03
2022-08-17T02:29:05.041Z,8.83
2022-08-17T02:31:32.156Z,7.67
2022-08-17T02:34:03.639Z,7.13
2022-08-17T02:36:32.290Z,5.83
2022-08-17T02:39:04.456Z,4.63
2022-08-17T02:41:31.813Z,5.30
2022-08-17T02:43:58.898Z,4.00
2022-08-17T02:46:26.187Z,4.50
2022-08-17T02:48:53.179Z,5.10
2022-08-17T02:51:20.355Z,4.43
2022-08-17T02:53:47.372Z,4.00
2022-08-17T02:56:14.679Z,5.17
2022-08-17T02:58:41.720Z,4.70
2022-08-17T03:01:10.455Z,4.70
2022-08-17T03:03:38.287Z,4.10
2022-08-17T03:06:06.331Z,5.37
2022-08-17T03:08:33.644Z,4.80
2022-08-17T03:11:00.731Z,5.43
2022-08-17T03:13:27.736Z,5.60
2022-08-17T03:15:54.727Z,5.43
2022-08-17T03:18:25.308Z,4.83
2022-08-17T03:20:55.449Z,5.57
2022-08-17T03:23:24.033Z,5.37
2022-08-17T03:25:52.979Z,6.80
2022-08-17T03:28:22.138Z,6.63
2022-08-17T03:30:51.222Z,6.83
2022-08-17T03:33:20.103Z,5.83
2022-08-17T03:35:47.565Z,5.27
2022-08-17T03:38:17.387Z,4.83
2022-08-17T03:40:56.570Z,9.10
2022-08-17T03:43:29.482Z,6.40
2022-08-17T03:46:34.683Z,6.30
2022-08-17T03:49:25.788Z,6.13
2022-08-17T03:52:13.079Z,5.80
2022-08-17T03:55:00.235Z,6.17
2022-08-17T03:57:27.803Z,6.17
2022-08-17T03:59:55.573Z,6.13
2022-08-17T04:02:26.978Z,7.20
2022-08-17T04:04:54.264Z,5.70
2022-08-17T04:07:23.423Z,6.30
2022-08-17T04:09:51.017Z,5.00
2022-08-17T04:12:20.389Z,5.93
2022-08-17T04:14:53.365Z,6.70
2022-08-17T04:17:27.036Z,5.67
2022-08-17T04:19:55.284Z,6.23
2022-08-17T04:22:33.343Z,6.70
2022-08-17T04:25:15.544Z,8.07
2022-08-17T04:27:42.510Z,8.37
2022-08-17T04:30:10.547Z,6.37
2022-08-17T04:33:00.786Z,11.37
2022-08-17T04:35:41.612Z,11.70
2022-08-17T04:38:10.655Z,9.97
2022-08-17T04:40:56.779Z,8.77
2022-08-17T04:43:25.699Z,8.67
2022-08-17T04:45:59.131Z,11.20
2022-08-17T04:48:36.467Z,10.07
2022-08-17T04:51:16.656Z,12.37
2022-08-17T04:53:46.233Z,11.60
2022-08-17T04:56:22.251Z,12.70
2022-08-17T04:58:51.406Z,11.40
2022-08-17T05:01:23.892Z,11.70
2022-08-17T05:03:56.684Z,10.73
2022-08-17T05:06:23.864Z,14.30
2022-08-17T05:08:50.967Z,13.60
2022-08-17T05:11:18.480Z,11.80
2022-08-17T05:13:45.699Z,11.33
2022-08-17T05:16:12.657Z,9.57
2022-08-17T05:18:39.718Z,9.00
2022-08-17T05:21:07.438Z,7.47
2022-08-17T05:23:42.544Z,7.10
2022-08-17T05:26:25.925Z,8.90
2022-08-17T05:29:00.632Z,8.60
2022-08-17T05:31:30.626Z,7.43
2022-08-17T05:33:57.647Z,7.90
2022-08-17T05:36:43.659Z,6.30
2022-08-17T05:39:16.124Z,6.40
2022-08-17T05:41:44.526Z,6.67
2022-08-17T05:44:11.532Z,7.17
2022-08-17T05:46:43.378Z,6.80
2022-08-17T05:49:23.038Z,5.50
2022-08-17T05:52:05.579Z,6.90
2022-08-17T05:55:10.900Z,6.10
2022-08-17T05:57:59.986Z,7.57
2022-08-17T06:01:18.243Z,7.23
2022-08-17T06:03:57.886Z,8.60
2022-08-17T06:06:47.942Z,8.03
2022-08-17T06:09:51.582Z,9.03
2022-08-17T06:12:21.474Z,8.23
2022-08-17T06:15:16.169Z,9.27
2022-08-17T06:17:43.837Z,7.53
2022-08-17T06:20:14.278Z,7.00
2022-08-17T06:22:49.719Z,7.30
2022-08-17T06:25:31.744Z,6.73
2022-08-17T06:28:05.431Z,5.77
2022-08-17T06:30:59.161Z,6.37
2022-08-17T06:33:35.247Z,5.90
2022-08-17T06:36:41.227Z,5.67
2022-08-17T06:39:53.333Z,6.57
2022-08-17T06:43:05.025Z,6.97
2022-08-17T06:45:49.414Z,6.03
2022-08-17T06:48:33.588Z,6.13
2022-08-17T06:51:05.923Z,6.27
2022-08-17T06:53:42.832Z,5.20
2022-08-17T06:56:53.372Z,7.03
2022-08-17T06:59:25.102Z,6.60
2022-08-17T07:01:53.204Z,5.50
2022-08-17T07:04:26.211Z,5.33
2022-08-17T07:07:24.646Z,5.30
2022-08-17T07:09:54.489Z,6.47
2022-08-17T07:12:28.068Z,5.63
2022-08-17T07:15:05.464Z,5.47
2022-08-17T07:17:46.700Z,6.10
2022-08-17T07:20:20.565Z,5.23
2022-08-17T07:23:06.721Z,5.80
2022-08-17T07:25:33.759Z,6.60
2022-08-17T07:28:07.141Z,7.33
2022-08-17T07:30:49.261Z,7.90
2022-08-17T07:33:23.711Z,6.00
2022-08-17T07:35:51.077Z,4.87
2022-08-17T07:38:24.973Z,5.97
2022-08-17T07:41:05.381Z,5.63
2022-08-17T07:43:36.731Z,5.20
2022-08-17T07:46:31.841Z,5.40
2022-08-17T07:49:07.600Z,5.00
2022-08-17T07:51:57.198Z,6.77
2022-08-17T07:54:36.842Z,5.37
2022-08-17T07:57:13.256Z,4.67
2022-08-17T08:00:12.789Z,4.60
2022-08-17T08:02:47.386Z,5.50
2022-08-17T08:05:32.872Z,4.70
2022-08-17T08:08:30.202Z,4.80
2022-08-17T08:11:07.212Z,4.30
2022-08-17T08:13:35.821Z,5.23
2022-08-17T08:16:29.227Z,5.00
2022-08-17T08:19:01.739Z,3.57
2022-08-17T08:21:31.450Z,4.63
2022-08-17T08:24:14.042Z,4.33
2022-08-17T08:27:01.728Z,4.23
2022-08-17T08:29:38.032Z,4.53
2022-08-17T08:32:30.326Z,4.67
2022-08-17T08:35:08.352Z,5.50
2022-08-17T08:38:02.149Z,5.43
2022-08-17T08:40:47.171Z,4.40
2022-08-17T08:43:17.014Z,4.43
2022-08-17T08:45:57.233Z,3.97
2022-08-17T08:48:56.362Z,4.83
2022-08-17T08:51:31.308Z,4.07
2022-08-17T08:54:34.726Z,3.67
2022-08-17T08:57:33.799Z,4.40
2022-08-17T09:00:21.485Z,4.10
2022-08-17T09:03:42.593Z,4.40
2022-08-17T09:06:42.211Z,4.20
2022-08-17T09:09:18.069Z,3.70
2022-08-17T09:12:04.049Z,3.23
2022-08-17T09:15:01.389Z,3.50
2022-08-17T09:17:40.207Z,4.20
2022-08-17T09:20:26.431Z,3.77
2022-08-17T09:23:10.741Z,3.80
2022-08-17T09:26:00.241Z,4.13
2022-08-17T09:28:37.936Z,3.00
2022-08-17T09:31:15.901Z,3.80
2022-08-17T09:33:48.970Z,3.50
2022-08-17T09:36:22.907Z,3.53
2022-08-17T09:39:09.534Z,2.73
2022-08-17T09:42:04.531Z,3.87
2022-08-17T09:44:44.326Z,5.43
2022-08-17T09:47:32.545Z,3.20
2022-08-17T09:50:15.345Z,2.90
2022-08-17T09:52:42.970Z,3.23
2022-08-17T09:55:10.230Z,2.40
2022-08-17T09:58:15.108Z,3.80
2022-08-17T10:00:50.760Z,2.37
2022-08-17T10:03:57.246Z,2.67
2022-08-17T10:06:44.209Z,2.03
2022-08-17T10:09:43.156Z,3.03
2022-08-17T10:12:30.089Z,3.30
2022-08-17T10:15:13.439Z,3.20
2022-08-17T10:18:07.505Z,2.70
2022-08-17T10:20:45.561Z,2.60
2022-08-17T10:23:43.114Z,2.50
2022-08-17T10:26:17.022Z,2.70
2022-08-17T10:28:49.843Z,3.07
2022-08-17T10:31:42.390Z,2.23
2022-08-17T10:34:24.470Z,2.80
2022-08-17T10:37:29.494Z,2.53
2022-08-17T10:40:11.423Z,2.40
2022-08-17T10:42:56.955Z,2.63
2022-08-17T10:46:28.390Z,2.70
2022-08-17T10:48:43.996Z,2.07
2022-08-17T10:51:13.350Z,2.50
2022-08-17T10:53:43.433Z,2.10
2022-08-17T10:56:13.319Z,2.23
2022-08-17T10:58:55.122Z,2.23
2022-08-17T11:01:34.406Z,2.67
2022-08-17T11:04:21.321Z,2.30
2022-08-17T11:07:07.772Z,2.40
2022-08-17T11:09:52.930Z,2.20
2022-08-17T11:12:54.517Z,2.67
2022-08-17T11:15:49.530Z,2.17
2022-08-17T11:18:25.750Z,2.70
2022-08-17T11:21:25.062Z,2.30
2022-08-17T11:24:12.357Z,2.03
2022-08-17T11:26:47.587Z,2.23
2022-08-17T11:29:24.817Z,4.10
2022-08-17T11:32:27.639Z,3.90
2022-08-17T11:35:15.422Z,1.93
2022-08-17T11:38:06.957Z,3.07
2022-08-17T11:40:35.689Z,2.40
2022-08-17T11:43:28.855Z,8.30
2022-08-17T11:46:10.879Z,2.60
2022-08-17T11:49:08.560Z,2.43
2022-08-17T11:52:01.672Z,2.37
2022-08-17T11:54:34.910Z,1.73
2022-08-17T11:57:27.721Z,1.97
2022-08-17T11:59:58.437Z,1.97
2022-08-17T12:02:31.730Z,2.10
2022-08-17T12:05:14.575Z,1.67
2022-08-17T12:07:52.119Z,2.00
2022-08-17T12:10:23.628Z,2.10
2022-08-17T12:12:54.060Z,1.80
2022-08-17T12:15:41.202Z,2.13
2022-08-17T12:18:08.927Z,1.40
2022-08-17T12:20:40.035Z,2.10
2022-08-17T12:23:30.015Z,1.57
2022-08-17T12:26:03.424Z,1.27
2022-08-17T12:28:31.825Z,1.30
2022-08-17T12:31:07.880Z,1.17
2022-08-17T12:33:36.872Z,1.33
2022-08-17T12:36:07.518Z,1.33
2022-08-17T12:38:37.313Z,1.53
2022-08-17T12:41:26.453Z,1.10
2022-08-17T12:44:13.441Z,1.60
2022-08-17T12:46:46.431Z,1.37
2022-08-17T12:49:15.269Z,1.67
2022-08-17T12:51:46.844Z,1.87
2022-08-17T12:54:39.809Z,1.83
2022-08-17T12:57:19.937Z,1.67
2022-08-17T12:59:52.051Z,1.40
2022-08-17T13:02:26.227Z,0.90
2022-08-17T13:04:53.390Z,1.10
2022-08-17T13:07:44.750Z,0.97
2022-08-17T13:10:21.499Z,1.00
2022-08-17T13:12:50.985Z,1.53
2022-08-17T13:15:33.089Z,0.90
2022-08-17T13:18:04.861Z,0.97
2022-08-17T13:20:32.946Z,1.20
2022-08-17T13:23:03.180Z,1.53
2022-08-17T13:25:30.898Z,1.00
2022-08-17T13:27:58.394Z,1.00
2022-08-17T13:30:33.315Z,1.00
2022-08-17T13:33:04.740Z,1.20
2022-08-17T13:35:41.077Z,1.60
2022-08-17T13:38:12.619Z,2.00
2022-08-17T13:40:43.299Z,1.93
2022-08-17T13:43:11.244Z,1.33
2022-08-17T13:45:50.580Z,1.90
2022-08-17T13:48:32.720Z,2.20
2022-08-17T13:50:59.676Z,2.80
2022-08-17T13:53:51.206Z,1.67
2022-08-17T13:56:38.338Z,1.67
2022-08-17T13:59:13.678Z,2.47
2022-08-17T14:01:48.485Z,1.90
2022-08-17T14:04:25.613Z,2.50
2022-08-17T14:06:57.844Z,2.77
2022-08-17T14:09:36.878Z,2.00
2022-08-17T14:12:06.873Z,1.80
2022-08-17T14:14:34.081Z,1.90
2022-08-17T14:17:01.076Z,1.87
2022-08-17T14:19:28.199Z,3.17
2022-08-17T14:21:58.918Z,2.03
2022-08-17T14:24:30.088Z,2.03
2022-08-17T14:26:58.332Z,1.93
2022-08-17T14:29:28.008Z,1.70
2022-08-17T14:31:56.837Z,1.80
2022-08-17T14:34:25.057Z,3.60
2022-08-17T14:36:52.555Z,1.60
2022-08-17T14:39:20.275Z,2.00
2022-08-17T14:41:47.454Z,1.50
2022-08-17T14:44:16.312Z,1.80
2022-08-17T14:46:44.745Z,1.80
2022-08-17T14:49:13.269Z,1.30
2022-08-17T14:51:44.119Z,1.30
2022-08-17T14:54:32.882Z,1.10
2022-08-17T14:57:04.578Z,1.33
2022-08-17T14:59:51.734Z,1.80
2022-08-17T15:02:29.901Z,1.40
2022-08-17T15:05:02.778Z,1.70
2022-08-17T15:07:31.071Z,1.90
2022-08-17T15:10:00.720Z,1.40
2022-08-17T15:12:32.271Z,1.60
2022-08-17T15:15:01.145Z,1.63
2022-08-17T15:17:45.080Z,1.80
2022-08-17T15:20:24.975Z,2.43
2022-08-17T15:22:56.078Z,1.57
2022-08-17T15:25:26.248Z,1.90
2022-08-17T15:27:54.121Z,1.73
2022-08-17T15:30:21.254Z,1.90
2022-08-17T15:32:51.317Z,3.10
2022-08-17T15:35:27.434Z,1.80
2022-08-17T15:38:11.676Z,1.73
2022-08-17T15:40:44.153Z,1.23
2022-08-17T15:43:14.936Z,1.60
2022-08-17T15:45:42.744Z,1.80
2022-08-17T15:48:10.140Z,1.20
2022-08-17T15:50:38.543Z,1.20
2022-08-17T15:53:05.519Z,1.00
2022-08-17T15:55:33.458Z,1.03
2022-08-17T15:58:01.163Z,1.30
2022-08-17T16:00:29.514Z,1.57
2022-08-17T16:03:44.544Z,1.73
2022-08-17T16:05:47.577Z,1.00
2022-08-17T16:08:20.039Z,1.90
2022-08-17T16:10:49.827Z,2.60
2022-08-17T16:13:18.551Z,1.73
2022-08-17T16:15:56.568Z,8.40
2022-08-17T16:18:30.888Z,1.57
2022-08-17T16:21:24.179Z,2.80
2022-08-17T16:23:56.268Z,1.03
2022-08-17T16:26:24.060Z,1.23
2022-08-17T16:28:52.100Z,1.87
2022-08-17T16:31:19.868Z,1.30
2022-08-17T16:34:16.100Z,1.63
2022-08-17T16:36:37.449Z,1.50
2022-08-17T16:39:04.825Z,2.03
2022-08-17T16:41:44.539Z,1.67
2022-08-17T16:44:16.910Z,2.10
2022-08-17T16:46:45.931Z,1.63
2022-08-17T16:49:35.968Z,1.70
2022-08-17T16:52:03.297Z,1.90
2022-08-17T16:54:30.343Z,2.90
2022-08-17T16:56:57.345Z,2.60
2022-08-17T16:59:31.686Z,2.40
2022-08-17T17:02:11.300Z,2.30
2022-08-17T17:04:45.898Z,3.27
2022-08-17T17:07:39.987Z,2.33
2022-08-17T17:10:14.272Z,2.90
2022-08-17T17:13:03.519Z,3.03
2022-08-17T17:15:46.205Z,2.60
2022-08-17T17:18:15.791Z,3.23
2022-08-17T17:20:59.370Z,3.53
2022-08-17T17:24:07.747Z,3.07
2022-08-17T17:27:01.724Z,3.67
2022-08-17T17:29:59.526Z,4.80
2022-08-17T17:32:42.068Z,3.60
2022-08-17T17:35:20.756Z,2.93
2022-08-17T17:37:48.790Z,2.93
2022-08-17T17:40:37.979Z,2.73
2022-08-17T17:43:34.774Z,2.70
2022-08-17T17:45:58.764Z,3.70
2022-08-17T17:48:45.726Z,3.60
2022-08-17T17:52:01.962Z,6.40
2022-08-17T17:54:42.929Z,4.60
2022-08-17T17:58:05.778Z,12.60
2022-08-17T18:00:44.455Z,7.90
2022-08-17T18:04:00.670Z,7.50
2022-08-17T18:06:30.780Z,6.40
2022-08-17T18:09:03.678Z,3.83
2022-08-17T18:11:51.648Z,5.40
2022-08-17T18:15:06.260Z,4.17
2022-08-17T18:17:33.502Z,5.23
2022-08-17T18:20:00.465Z,4.00
2022-08-17T18:22:27.862Z,5.17
2022-08-17T18:24:57.223Z,4.20
2022-08-17T18:27:40.812Z,8.57
2022-08-17T18:30:10.638Z,3.13
2022-08-17T18:32:43.730Z,3.13
2022-08-17T18:35:10.680Z,4.30
2022-08-17T18:37:51.587Z,4.43
2022-08-17T18:40:23.405Z,4.53
2022-08-17T18:43:24.463Z,3.57
2022-08-17T18:45:56.756Z,4.23
2022-08-17T18:48:36.671Z,5.10
2022-08-17T18:51:26.285Z,3.07
2022-08-17T18:54:23.555Z,3.20
2022-08-17T18:57:00.573Z,4.10
2022-08-17T18:59:29.747Z,3.30
2022-08-17T19:01:59.147Z,3.40
2022-08-17T19:04:34.596Z,3.30
2022-08-17T19:07:10.776Z,2.87
2022-08-17T19:09:47.218Z,3.70
2022-08-17T19:12:46.023Z,3.20
2022-08-17T19:15:17.235Z,3.17
2022-08-17T19:17:53.277Z,3.83
2022-08-17T19:20:29.500Z,3.30
2022-08-17T19:23:24.027Z,3.50
2022-08-17T19:25:55.197Z,3.30
2022-08-17T19:28:38.874Z,3.30
2022-08-17T19:31:22.275Z,3.20
2022-08-17T19:33:49.483Z,9.20
2022-08-17T19:36:47.140Z,56.30
2022-08-17T19:39:56.056Z,6.97
2022-08-17T19:43:12.872Z,5.60
2022-08-17T19:46:05.942Z,7.93
2022-08-17T19:48:40.766Z,7.23
2022-08-17T19:51:29.319Z,7.70
2022-08-17T19:54:31.475Z,6.80
2022-08-17T19:57:21.296Z,6.90
2022-08-17T20:00:09.903Z,6.30
2022-08-17T20:02:58.204Z,13.77
2022-08-17T20:05:44.410Z,11.87
2022-08-17T20:09:00.562Z,6.03
2022-08-17T20:11:43.908Z,7.13
2022-08-17T20:14:18.026Z,7.90
2022-08-17T20:16:45.458Z,5.97
2022-08-17T20:19:37.517Z,6.17
2022-08-17T20:22:11.936Z,5.20
2022-08-17T20:25:12.656Z,4.37
2022-08-17T20:27:55.018Z,5.20
2022-08-17T20:30:38.237Z,5.57
2022-08-17T20:33:18.375Z,7.73
2022-08-17T20:36:12.103Z,6.23
2022-08-17T20:38:52.989Z,6.90
2022-08-17T20:41:23.984Z,7.57
2022-08-17T20:44:11.161Z,9.87
2022-08-17T20:46:38.322Z,13.83
2022-08-17T20:49:10.990Z,15.80
2022-08-17T20:52:09.836Z,16.27
2022-08-17T20:54:57.469Z,14.20
2022-08-17T20:57:33.516Z,16.13
2022-08-17T21:00:28.666Z,14.87
2022-08-17T21:03:27.947Z,11.43
2022-08-17T21:06:18.221Z,12.07
2022-08-17T21:08:57.907Z,13.13
2022-08-17T21:11:57.114Z,11.70
2022-08-17T21:14:46.574Z,12.33
2022-08-17T21:17:32.297Z,8.50
2022-08-17T21:20:14.801Z,7.23
2022-08-17T21:23:02.780Z,6.20
2022-08-17T21:25:54.189Z,5.50
2022-08-17T21:29:01.433Z,5.60
2022-08-17T21:31:47.712Z,6.60
2022-08-17T21:34:20.885Z,5.57
2022-08-17T21:36:48.590Z,5.10
2022-08-17T21:39:21.459Z,5.20
2022-08-17T21:41:53.910Z,4.33
2022-08-17T21:44:33.835Z,3.80
2022-08-17T21:47:24.606Z,4.80
2022-08-17T21:49:53.871Z,4.27
2022-08-17T21:52:24.249Z,5.10
2022-08-17T21:54:58.303Z,3.93
2022-08-17T21:57:28.002Z,4.33
2022-08-17T22:00:05.345Z,4.83
2022-08-17T22:02:36.060Z,4.77
2022-08-17T22:05:12.280Z,4.30
2022-08-17T22:07:46.554Z,4.63
2022-08-17T22:10:38.475Z,5.27
2022-08-17T22:13:21.951Z,5.10
2022-08-17T22:16:15.382Z,5.30
2022-08-17T22:18:57.737Z,5.90
2022-08-17T22:21:25.522Z,6.13
2022-08-17T22:24:05.194Z,5.67
2022-08-17T22:27:02.286Z,4.57
2022-08-17T22:29:57.277Z,4.93
2022-08-17T22:32:37.316Z,4.40
2022-08-17T22:35:18.015Z,5.40
2022-08-17T22:37:45.657Z,4.50
2022-08-17T22:40:30.467Z,4.53
2022-08-17T22:43:00.111Z,5.30
2022-08-17T22:45:31.120Z,5.40
2022-08-17T22:48:00.265Z,4.73
2022-08-17T22:50:30.402Z,5.03
2022-08-17T22:53:20.247Z,5.40
2022-08-17T22:56:13.651Z,5.30
2022-08-17T22:59:12.838Z,4.97
2022-08-17T23:01:41.013Z,5.50
2022-08-17T23:04:29.241Z,5.07
2022-08-17T23:06:56.311Z,4.87
2022-08-17T23:09:23.438Z,5.63
2022-08-17T23:11:58.819Z,5.40
2022-08-17T23:14:31.778Z,5.50
2022-08-17T23:17:00.685Z,5.63
2022-08-17T23:19:31.730Z,5.30
2022-08-17T23:22:01.461Z,5.17
2022-08-17T23:24:32.624Z,5.10
2022-08-17T23:26:59.691Z,4.87
2022-08-17T23:29:29.382Z,5.63
2022-08-17T23:31:59.680Z,5.63
2022-08-17T23:34:28.099Z,5.57
2022-08-17T23:36:55.837Z,4.80
2022-08-17T23:39:24.506Z,4.77
2022-08-17T23:42:00.253Z,6.20
2022-08-17T23:44:28.860Z,5.30
2022-08-17T23:46:56.237Z,6.53
2022-08-17T23:49:25.115Z,4.97
2022-08-17T23:51:54.729Z,6.30
2022-08-17T23:54:46.499Z,8.37
2022-08-17T23:57:20.016Z,11.00
